sensor_id;sensor_type;location;lat;lon;timestamp;temperature;humidity
14555;DHT22;7364;50.870;4.722;2022-10-31T00:00:45;16.50;99.90
14555;DHT22;7364;50.870;4.722;2022-10-31T00:03:13;16.60;99.90
14555;DHT22;7364;50.870;4.722;2022-10-31T00:05:41;16.70;99.90
14555;DHT22;7364;50.870;4.722;2022-10-31T00:08:08;16.70;99.90
14555;DHT22;7364;50.870;4.722;2022-10-31T00:10:42;16.60;99.90
14555;DHT22;7364;50.870;4.722;2022-10-31T00:13:10;16.60;99.90
14555;DHT22;7364;50.870;4.722;2022-10-31T00:15:39;16.60;99.90
14555;DHT22;7364;50.870;4.722;2022-10-31T00:18:07;16.40;99.90
14555;DHT22;7364;50.870;4.722;2022-10-31T00:20:35;16.30;99.90
14555;DHT22;7364;50.870;4.722;2022-10-31T00:23:03;16.40;99.90
14555;DHT22;7364;50.870;4.722;2022-10-31T00:25:35;16.40;99.90
14555;DHT22;7364;50.870;4.722;2022-10-31T00:28:05;16.40;99.90
14555;DHT22;7364;50.870;4.722;2022-10-31T00:30:33;16.40;99.90
14555;DHT22;7364;50.870;4.722;2022-10-31T00:33:03;16.40;99.90
14555;DHT22;7364;50.870;4.722;2022-10-31T00:35:30;16.50;99.90
14555;DHT22;7364;50.870;4.722;2022-10-31T00:37:57;16.40;99.90
14555;DHT22;7364;50.870;4.722;2022-10-31T00:40:24;16.40;99.90
14555;DHT22;7364;50.870;4.722;2022-10-31T00:43:06;16.40;99.90
14555;DHT22;7364;50.870;4.722;2022-10-31T00:45:40;16.20;99.90
14555;DHT22;7364;50.870;4.722;2022-10-31T00:48:16;16.10;99.90
14555;DHT22;7364;50.870;4.722;2022-10-31T00:50:48;16.00;99.90
14555;DHT22;7364;50.870;4.722;2022-10-31T00:53:26;15.90;99.90
14555;DHT22;7364;50.870;4.722;2022-10-31T00:56:07;15.80;99.90
14555;DHT22;7364;50.870;4.722;2022-10-31T00:58:52;15.70;99.90
14555;DHT22;7364;50.870;4.722;2022-10-31T01:01:34;15.80;99.90
14555;DHT22;7364;50.870;4.722;2022-10-31T01:04:06;15.90;99.90
14555;DHT22;7364;50.870;4.722;2022-10-31T01:06:36;16.00;99.90
14555;DHT22;7364;50.870;4.722;2022-10-31T01:09:03;16.00;99.90
14555;DHT22;7364;50.870;4.722;2022-10-31T01:11:31;16.00;99.90
14555;DHT22;7364;50.870;4.722;2022-10-31T01:14:02;16.00;99.90
14555;DHT22;7364;50.870;4.722;2022-10-31T01:16:29;16.00;99.90
14555;DHT22;7364;50.870;4.722;2022-10-31T01:18:56;15.90;99.90
14555;DHT22;7364;50.870;4.722;2022-10-31T01:21:25;15.90;99.90
14555;DHT22;7364;50.870;4.722;2022-10-31T01:23:53;15.80;99.90
14555;DHT22;7364;50.870;4.722;2022-10-31T01:26:22;15.70;99.90
14555;DHT22;7364;50.870;4.722;2022-10-31T01:28:53;15.40;99.90
14555;DHT22;7364;50.870;4.722;2022-10-31T01:31:23;15.10;99.90
14555;DHT22;7364;50.870;4.722;2022-10-31T01:33:50;15.10;99.90
14555;DHT22;7364;50.870;4.722;2022-10-31T01:36:19;15.20;99.90
14555;DHT22;7364;50.870;4.722;2022-10-31T01:38:47;15.40;99.90
14555;DHT22;7364;50.870;4.722;2022-10-31T01:41:16;15.60;99.90
14555;DHT22;7364;50.870;4.722;2022-10-31T01:43:49;15.50;99.90
14555;DHT22;7364;50.870;4.722;2022-10-31T01:46:22;15.20;99.90
14555;DHT22;7364;50.870;4.722;2022-10-31T01:48:51;15.10;99.90
14555;DHT22;7364;50.870;4.722;2022-10-31T01:51:22;15.00;99.90
14555;DHT22;7364;50.870;4.722;2022-10-31T01:53:51;15.10;99.90
14555;DHT22;7364;50.870;4.722;2022-10-31T01:56:19;15.30;99.90
14555;DHT22;7364;50.870;4.722;2022-10-31T01:58:47;15.40;99.90
14555;DHT22;7364;50.870;4.722;2022-10-31T02:01:15;15.50;99.90
14555;DHT22;7364;50.870;4.722;2022-10-31T02:03:45;15.50;99.90
14555;DHT22;7364;50.870;4.722;2022-10-31T02:06:21;15.60;99.90
14555;DHT22;7364;50.870;4.722;2022-10-31T02:08:50;15.70;99.90
14555;DHT22;7364;50.870;4.722;2022-10-31T02:11:18;15.40;99.90
14555;DHT22;7364;50.870;4.722;2022-10-31T02:13:45;15.30;99.90
14555;DHT22;7364;50.870;4.722;2022-10-31T02:16:13;15.30;99.90
14555;DHT22;7364;50.870;4.722;2022-10-31T02:18:41;15.40;99.90
14555;DHT22;7364;50.870;4.722;2022-10-31T02:21:15;15.30;99.90
14555;DHT22;7364;50.870;4.722;2022-10-31T02:24:21;15.30;99.90
14555;DHT22;7364;50.870;4.722;2022-10-31T02:27:07;15.10;99.90
14555;DHT22;7364;50.870;4.722;2022-10-31T02:32:54;15.10;99.90
14555;DHT22;7364;50.870;4.722;2022-10-31T02:35:40;14.90;99.90
14555;DHT22;7364;50.870;4.722;2022-10-31T02:38:18;14.70;99.90
14555;DHT22;7364;50.870;4.722;2022-10-31T02:40:53;14.60;99.90
14555;DHT22;7364;50.870;4.722;2022-10-31T02:43:28;14.30;99.90
14555;DHT22;7364;50.870;4.722;2022-10-31T02:46:01;14.30;99.90
14555;DHT22;7364;50.870;4.722;2022-10-31T02:48:47;14.30;99.90
14555;DHT22;7364;50.870;4.722;2022-10-31T02:51:15;14.40;99.90
14555;DHT22;7364;50.870;4.722;2022-10-31T02:53:43;14.50;99.90
14555;DHT22;7364;50.870;4.722;2022-10-31T02:56:12;14.70;99.90
14555;DHT22;7364;50.870;4.722;2022-10-31T02:58:43;14.80;99.90
14555;DHT22;7364;50.870;4.722;2022-10-31T03:01:48;14.90;99.90
14555;DHT22;7364;50.870;4.722;2022-10-31T03:04:29;14.90;99.90
14555;DHT22;7364;50.870;4.722;2022-10-31T03:07:05;14.90;99.90
14555;DHT22;7364;50.870;4.722;2022-10-31T03:09:39;14.50;99.90
14555;DHT22;7364;50.870;4.722;2022-10-31T03:12:11;14.50;99.90
14555;DHT22;7364;50.870;4.722;2022-10-31T03:14:43;14.70;99.90
14555;DHT22;7364;50.870;4.722;2022-10-31T03:17:24;14.80;99.90
14555;DHT22;7364;50.870;4.722;2022-10-31T03:20:00;15.00;99.90
14555;DHT22;7364;50.870;4.722;2022-10-31T03:22:30;15.00;99.90
14555;DHT22;7364;50.870;4.722;2022-10-31T03:25:01;14.90;99.90
14555;DHT22;7364;50.870;4.722;2022-10-31T03:27:33;14.80;99.90
14555;DHT22;7364;50.870;4.722;2022-10-31T03:30:05;14.80;99.90
14555;DHT22;7364;50.870;4.722;2022-10-31T03:32:41;14.80;99.90
14555;DHT22;7364;50.870;4.722;2022-10-31T03:35:12;14.90;99.90
14555;DHT22;7364;50.870;4.722;2022-10-31T03:37:40;14.90;99.90
14555;DHT22;7364;50.870;4.722;2022-10-31T03:40:10;14.90;99.90
14555;DHT22;7364;50.870;4.722;2022-10-31T03:42:43;15.00;99.90
14555;DHT22;7364;50.870;4.722;2022-10-31T03:45:16;14.80;99.90
14555;DHT22;7364;50.870;4.722;2022-10-31T03:47:44;14.90;99.90
14555;DHT22;7364;50.870;4.722;2022-10-31T03:50:14;14.90;99.90
14555;DHT22;7364;50.870;4.722;2022-10-31T03:52:45;15.10;99.90
14555;DHT22;7364;50.870;4.722;2022-10-31T03:55:18;15.00;99.90
14555;DHT22;7364;50.870;4.722;2022-10-31T03:57:51;14.90;99.90
14555;DHT22;7364;50.870;4.722;2022-10-31T04:00:20;14.80;99.90
14555;DHT22;7364;50.870;4.722;2022-10-31T04:02:51;14.70;99.90
14555;DHT22;7364;50.870;4.722;2022-10-31T04:05:23;14.50;99.90
14555;DHT22;7364;50.870;4.722;2022-10-31T04:07:54;14.50;99.90
14555;DHT22;7364;50.870;4.722;2022-10-31T04:10:23;14.70;99.90
14555;DHT22;7364;50.870;4.722;2022-10-31T04:12:56;14.60;99.90
14555;DHT22;7364;50.870;4.722;2022-10-31T04:15:25;14.50;99.90
14555;DHT22;7364;50.870;4.722;2022-10-31T04:17:58;14.40;99.90
14555;DHT22;7364;50.870;4.722;2022-10-31T04:20:35;14.50;99.90
14555;DHT22;7364;50.870;4.722;2022-10-31T04:23:04;14.40;99.90
14555;DHT22;7364;50.870;4.722;2022-10-31T04:25:31;14.30;99.90
14555;DHT22;7364;50.870;4.722;2022-10-31T04:27:59;14.20;99.90
14555;DHT22;7364;50.870;4.722;2022-10-31T04:30:26;14.40;99.90
14555;DHT22;7364;50.870;4.722;2022-10-31T04:32:53;14.40;99.90
14555;DHT22;7364;50.870;4.722;2022-10-31T04:35:20;14.40;99.90
14555;DHT22;7364;50.870;4.722;2022-10-31T04:37:49;14.40;99.90
14555;DHT22;7364;50.870;4.722;2022-10-31T04:40:16;14.20;99.90
14555;DHT22;7364;50.870;4.722;2022-10-31T04:42:43;14.00;99.90
14555;DHT22;7364;50.870;4.722;2022-10-31T04:45:10;14.20;99.90
14555;DHT22;7364;50.870;4.722;2022-10-31T04:47:38;14.40;99.90
14555;DHT22;7364;50.870;4.722;2022-10-31T04:50:05;14.40;99.90
14555;DHT22;7364;50.870;4.722;2022-10-31T04:52:38;14.50;99.90
14555;DHT22;7364;50.870;4.722;2022-10-31T04:55:07;14.60;99.90
14555;DHT22;7364;50.870;4.722;2022-10-31T04:57:40;14.70;99.90
14555;DHT22;7364;50.870;4.722;2022-10-31T05:00:09;14.70;99.90
14555;DHT22;7364;50.870;4.722;2022-10-31T05:02:43;14.70;99.90
14555;DHT22;7364;50.870;4.722;2022-10-31T05:05:10;14.80;99.90
14555;DHT22;7364;50.870;4.722;2022-10-31T05:07:39;14.80;99.90
14555;DHT22;7364;50.870;4.722;2022-10-31T05:10:09;14.70;99.90
14555;DHT22;7364;50.870;4.722;2022-10-31T05:12:37;14.70;99.90
14555;DHT22;7364;50.870;4.722;2022-10-31T05:15:05;14.70;99.90
14555;DHT22;7364;50.870;4.722;2022-10-31T05:17:33;14.50;99.90
14555;DHT22;7364;50.870;4.722;2022-10-31T05:20:00;14.30;99.90
14555;DHT22;7364;50.870;4.722;2022-10-31T05:22:27;14.30;99.90
14555;DHT22;7364;50.870;4.722;2022-10-31T05:24:55;14.20;99.90
14555;DHT22;7364;50.870;4.722;2022-10-31T05:27:23;14.20;99.90
14555;DHT22;7364;50.870;4.722;2022-10-31T05:29:50;13.90;99.90
14555;DHT22;7364;50.870;4.722;2022-10-31T05:32:18;14.00;99.90
14555;DHT22;7364;50.870;4.722;2022-10-31T05:34:45;14.20;99.90
14555;DHT22;7364;50.870;4.722;2022-10-31T05:37:12;14.40;99.90
14555;DHT22;7364;50.870;4.722;2022-10-31T05:39:39;14.50;99.90
14555;DHT22;7364;50.870;4.722;2022-10-31T05:42:07;14.70;99.90
14555;DHT22;7364;50.870;4.722;2022-10-31T05:44:35;14.70;99.90
14555;DHT22;7364;50.870;4.722;2022-10-31T05:47:02;14.80;99.90
14555;DHT22;7364;50.870;4.722;2022-10-31T05:49:31;14.70;99.90
14555;DHT22;7364;50.870;4.722;2022-10-31T05:51:58;14.50;99.90
14555;DHT22;7364;50.870;4.722;2022-10-31T05:54:25;14.40;99.90
14555;DHT22;7364;50.870;4.722;2022-10-31T05:56:52;14.50;99.90
14555;DHT22;7364;50.870;4.722;2022-10-31T05:59:19;14.70;99.90
14555;DHT22;7364;50.870;4.722;2022-10-31T06:01:48;14.70;99.90
14555;DHT22;7364;50.870;4.722;2022-10-31T06:04:15;14.80;99.90
14555;DHT22;7364;50.870;4.722;2022-10-31T06:06:42;14.80;99.90
14555;DHT22;7364;50.870;4.722;2022-10-31T06:09:10;14.90;99.90
14555;DHT22;7364;50.870;4.722;2022-10-31T06:11:37;14.90;99.90
14555;DHT22;7364;50.870;4.722;2022-10-31T06:14:04;14.80;99.90
14555;DHT22;7364;50.870;4.722;2022-10-31T06:16:32;14.80;99.90
14555;DHT22;7364;50.870;4.722;2022-10-31T06:19:00;14.90;99.90
14555;DHT22;7364;50.870;4.722;2022-10-31T06:21:27;14.80;99.90
14555;DHT22;7364;50.870;4.722;2022-10-31T06:23:55;14.80;99.90
14555;DHT22;7364;50.870;4.722;2022-10-31T06:26:22;14.80;99.90
14555;DHT22;7364;50.870;4.722;2022-10-31T06:28:49;14.80;99.90
14555;DHT22;7364;50.870;4.722;2022-10-31T06:31:17;14.90;99.90
14555;DHT22;7364;50.870;4.722;2022-10-31T06:33:44;14.80;99.90
14555;DHT22;7364;50.870;4.722;2022-10-31T06:36:13;14.70;99.90
14555;DHT22;7364;50.870;4.722;2022-10-31T06:38:40;14.70;99.90
14555;DHT22;7364;50.870;4.722;2022-10-31T06:41:07;14.70;99.90
14555;DHT22;7364;50.870;4.722;2022-10-31T06:43:34;14.80;99.90
14555;DHT22;7364;50.870;4.722;2022-10-31T06:46:03;14.70;99.90
14555;DHT22;7364;50.870;4.722;2022-10-31T06:48:30;14.70;99.90
14555;DHT22;7364;50.870;4.722;2022-10-31T06:50:58;14.80;99.90
14555;DHT22;7364;50.870;4.722;2022-10-31T06:53:29;14.80;99.90
14555;DHT22;7364;50.870;4.722;2022-10-31T06:55:58;14.90;99.90
14555;DHT22;7364;50.870;4.722;2022-10-31T06:58:25;15.00;99.90
14555;DHT22;7364;50.870;4.722;2022-10-31T07:00:52;15.00;99.90
14555;DHT22;7364;50.870;4.722;2022-10-31T07:03:20;15.00;99.90
14555;DHT22;7364;50.870;4.722;2022-10-31T07:05:47;14.90;99.90
14555;DHT22;7364;50.870;4.722;2022-10-31T07:08:14;15.00;99.90
14555;DHT22;7364;50.870;4.722;2022-10-31T07:10:50;15.10;99.90
14555;DHT22;7364;50.870;4.722;2022-10-31T07:13:18;15.10;99.90
14555;DHT22;7364;50.870;4.722;2022-10-31T07:15:51;15.20;99.90
14555;DHT22;7364;50.870;4.722;2022-10-31T07:18:18;15.30;99.90
14555;DHT22;7364;50.870;4.722;2022-10-31T07:20:46;15.30;99.90
14555;DHT22;7364;50.870;4.722;2022-10-31T07:23:13;15.00;99.90
14555;DHT22;7364;50.870;4.722;2022-10-31T07:25:42;15.10;99.90
14555;DHT22;7364;50.870;4.722;2022-10-31T07:28:10;15.10;99.90
14555;DHT22;7364;50.870;4.722;2022-10-31T07:30:37;15.30;99.90
14555;DHT22;7364;50.870;4.722;2022-10-31T07:33:05;15.40;99.90
14555;DHT22;7364;50.870;4.722;2022-10-31T07:35:33;15.60;99.90
14555;DHT22;7364;50.870;4.722;2022-10-31T07:38:11;15.60;99.90
14555;DHT22;7364;50.870;4.722;2022-10-31T07:40:40;15.50;99.90
14555;DHT22;7364;50.870;4.722;2022-10-31T07:43:11;15.40;99.90
14555;DHT22;7364;50.870;4.722;2022-10-31T07:45:38;15.00;99.90
14555;DHT22;7364;50.870;4.722;2022-10-31T07:48:06;14.80;99.90
14555;DHT22;7364;50.870;4.722;2022-10-31T07:50:34;14.80;99.90
14555;DHT22;7364;50.870;4.722;2022-10-31T07:53:03;15.10;99.90
14555;DHT22;7364;50.870;4.722;2022-10-31T07:55:31;15.00;99.90
14555;DHT22;7364;50.870;4.722;2022-10-31T07:58:00;14.70;99.90
14555;DHT22;7364;50.870;4.722;2022-10-31T08:00:29;14.70;99.90
14555;DHT22;7364;50.870;4.722;2022-10-31T08:02:57;14.50;99.90
14555;DHT22;7364;50.870;4.722;2022-10-31T08:05:25;14.60;99.90
14555;DHT22;7364;50.870;4.722;2022-10-31T08:07:52;15.10;99.90
14555;DHT22;7364;50.870;4.722;2022-10-31T08:10:20;15.50;99.90
14555;DHT22;7364;50.870;4.722;2022-10-31T08:12:47;15.70;99.90
14555;DHT22;7364;50.870;4.722;2022-10-31T08:15:24;16.00;99.90
14555;DHT22;7364;50.870;4.722;2022-10-31T08:17:52;16.00;99.90
14555;DHT22;7364;50.870;4.722;2022-10-31T08:20:21;16.20;99.90
14555;DHT22;7364;50.870;4.722;2022-10-31T08:22:55;16.00;99.90
14555;DHT22;7364;50.870;4.722;2022-10-31T08:25:24;16.00;99.90
14555;DHT22;7364;50.870;4.722;2022-10-31T08:27:51;16.10;99.90
14555;DHT22;7364;50.870;4.722;2022-10-31T08:30:20;16.20;99.90
14555;DHT22;7364;50.870;4.722;2022-10-31T08:32:59;16.30;99.90
14555;DHT22;7364;50.870;4.722;2022-10-31T08:35:28;16.40;99.90
14555;DHT22;7364;50.870;4.722;2022-10-31T08:37:56;16.60;99.90
14555;DHT22;7364;50.870;4.722;2022-10-31T08:40:24;16.40;99.90
14555;DHT22;7364;50.870;4.722;2022-10-31T08:42:58;16.50;99.90
14555;DHT22;7364;50.870;4.722;2022-10-31T08:45:27;16.70;99.90
14555;DHT22;7364;50.870;4.722;2022-10-31T08:47:58;16.80;99.90
14555;DHT22;7364;50.870;4.722;2022-10-31T08:50:27;16.70;99.90
14555;DHT22;7364;50.870;4.722;2022-10-31T08:52:59;16.80;99.90
14555;DHT22;7364;50.870;4.722;2022-10-31T08:55:26;16.80;99.90
14555;DHT22;7364;50.870;4.722;2022-10-31T08:57:55;16.80;99.90
14555;DHT22;7364;50.870;4.722;2022-10-31T09:00:24;16.90;99.90
14555;DHT22;7364;50.870;4.722;2022-10-31T09:02:56;17.10;99.90
14555;DHT22;7364;50.870;4.722;2022-10-31T09:05:26;17.20;99.90
14555;DHT22;7364;50.870;4.722;2022-10-31T09:07:55;17.10;99.90
14555;DHT22;7364;50.870;4.722;2022-10-31T09:10:24;16.90;99.90
14555;DHT22;7364;50.870;4.722;2022-10-31T09:12:55;16.90;99.90
14555;DHT22;7364;50.870;4.722;2022-10-31T09:15:23;17.00;99.90
14555;DHT22;7364;50.870;4.722;2022-10-31T09:17:50;17.20;99.90
14555;DHT22;7364;50.870;4.722;2022-10-31T09:20:18;17.30;99.90
14555;DHT22;7364;50.870;4.722;2022-10-31T09:22:46;17.20;99.90
14555;DHT22;7364;50.870;4.722;2022-10-31T09:25:14;17.20;99.90
14555;DHT22;7364;50.870;4.722;2022-10-31T09:27:41;17.20;99.90
14555;DHT22;7364;50.870;4.722;2022-10-31T09:30:09;17.40;99.90
14555;DHT22;7364;50.870;4.722;2022-10-31T09:32:36;17.50;99.90
14555;DHT22;7364;50.870;4.722;2022-10-31T09:35:03;17.50;99.90
14555;DHT22;7364;50.870;4.722;2022-10-31T09:37:31;17.80;99.90
14555;DHT22;7364;50.870;4.722;2022-10-31T09:39:59;18.10;99.90
14555;DHT22;7364;50.870;4.722;2022-10-31T09:42:42;18.20;99.90
14555;DHT22;7364;50.870;4.722;2022-10-31T09:45:15;18.10;99.90
14555;DHT22;7364;50.870;4.722;2022-10-31T09:47:54;18.20;99.90
14555;DHT22;7364;50.870;4.722;2022-10-31T09:50:28;18.10;99.90
14555;DHT22;7364;50.870;4.722;2022-10-31T09:53:01;18.10;99.90
14555;DHT22;7364;50.870;4.722;2022-10-31T09:55:49;18.20;99.90
14555;DHT22;7364;50.870;4.722;2022-10-31T09:58:30;18.40;99.90
14555;DHT22;7364;50.870;4.722;2022-10-31T10:01:00;18.40;99.90
14555;DHT22;7364;50.870;4.722;2022-10-31T10:03:34;18.60;99.90
14555;DHT22;7364;50.870;4.722;2022-10-31T10:06:11;18.50;99.90
14555;DHT22;7364;50.870;4.722;2022-10-31T10:08:40;18.40;99.90
14555;DHT22;7364;50.870;4.722;2022-10-31T10:11:37;18.50;99.90
14555;DHT22;7364;50.870;4.722;2022-10-31T10:14:33;18.80;99.90
14555;DHT22;7364;50.870;4.722;2022-10-31T10:17:13;18.90;99.90
14555;DHT22;7364;50.870;4.722;2022-10-31T10:20:09;19.10;99.90
14555;DHT22;7364;50.870;4.722;2022-10-31T10:22:42;19.20;99.90
14555;DHT22;7364;50.870;4.722;2022-10-31T10:25:18;19.20;99.90
14555;DHT22;7364;50.870;4.722;2022-10-31T10:27:56;19.10;99.90
14555;DHT22;7364;50.870;4.722;2022-10-31T10:30:32;19.00;99.90
14555;DHT22;7364;50.870;4.722;2022-10-31T10:33:04;19.00;99.90
14555;DHT22;7364;50.870;4.722;2022-10-31T10:35:34;19.10;99.90
14555;DHT22;7364;50.870;4.722;2022-10-31T10:38:08;18.90;99.90
14555;DHT22;7364;50.870;4.722;2022-10-31T10:40:37;18.80;99.90
14555;DHT22;7364;50.870;4.722;2022-10-31T10:43:18;18.90;99.90
14555;DHT22;7364;50.870;4.722;2022-10-31T10:45:49;19.10;99.90
14555;DHT22;7364;50.870;4.722;2022-10-31T10:48:42;19.00;99.90
14555;DHT22;7364;50.870;4.722;2022-10-31T10:51:20;19.40;99.90
14555;DHT22;7364;50.870;4.722;2022-10-31T10:54:06;19.80;99.90
14555;DHT22;7364;50.870;4.722;2022-10-31T10:56:51;20.00;99.90
14555;DHT22;7364;50.870;4.722;2022-10-31T10:59:23;20.60;99.90
14555;DHT22;7364;50.870;4.722;2022-10-31T11:01:52;21.00;99.90
14555;DHT22;7364;50.870;4.722;2022-10-31T11:04:31;21.20;99.90
14555;DHT22;7364;50.870;4.722;2022-10-31T11:07:00;21.50;99.90
14555;DHT22;7364;50.870;4.722;2022-10-31T11:09:28;21.90;99.90
14555;DHT22;7364;50.870;4.722;2022-10-31T11:11:56;22.20;99.90
14555;DHT22;7364;50.870;4.722;2022-10-31T11:14:27;22.60;99.90
14555;DHT22;7364;50.870;4.722;2022-10-31T11:17:11;23.10;99.90
14555;DHT22;7364;50.870;4.722;2022-10-31T11:19:42;23.40;99.90
14555;DHT22;7364;50.870;4.722;2022-10-31T11:22:16;23.50;99.90
14555;DHT22;7364;50.870;4.722;2022-10-31T11:24:43;23.70;99.90
14555;DHT22;7364;50.870;4.722;2022-10-31T11:27:16;23.80;99.90
14555;DHT22;7364;50.870;4.722;2022-10-31T11:29:49;23.60;99.90
14555;DHT22;7364;50.870;4.722;2022-10-31T11:32:20;23.50;99.90
14555;DHT22;7364;50.870;4.722;2022-10-31T11:34:50;23.60;99.90
14555;DHT22;7364;50.870;4.722;2022-10-31T11:37:20;23.70;99.90
14555;DHT22;7364;50.870;4.722;2022-10-31T11:39:51;23.50;99.90
14555;DHT22;7364;50.870;4.722;2022-10-31T11:42:22;23.50;99.90
14555;DHT22;7364;50.870;4.722;2022-10-31T11:44:52;23.70;99.90
14555;DHT22;7364;50.870;4.722;2022-10-31T11:47:25;23.90;99.90
14555;DHT22;7364;50.870;4.722;2022-10-31T11:49:53;24.40;99.90
14555;DHT22;7364;50.870;4.722;2022-10-31T11:52:24;24.80;99.90
14555;DHT22;7364;50.870;4.722;2022-10-31T11:54:54;25.10;99.90
14555;DHT22;7364;50.870;4.722;2022-10-31T11:57:27;25.60;99.90
14555;DHT22;7364;50.870;4.722;2022-10-31T11:59:59;25.80;99.90
14555;DHT22;7364;50.870;4.722;2022-10-31T12:02:29;26.00;99.90
14555;DHT22;7364;50.870;4.722;2022-10-31T12:05:02;26.10;99.70
14555;DHT22;7364;50.870;4.722;2022-10-31T12:07:31;26.40;99.10
14555;DHT22;7364;50.870;4.722;2022-10-31T12:09:58;26.50;98.80
14555;DHT22;7364;50.870;4.722;2022-10-31T12:12:41;26.70;98.30
14555;DHT22;7364;50.870;4.722;2022-10-31T12:15:29;26.80;98.30
14555;DHT22;7364;50.870;4.722;2022-10-31T12:21:14;26.90;97.80
14555;DHT22;7364;50.870;4.722;2022-10-31T12:23:54;26.40;98.50
14555;DHT22;7364;50.870;4.722;2022-10-31T12:26:29;26.90;98.20
14555;DHT22;7364;50.870;4.722;2022-10-31T12:29:24;27.00;98.00
14555;DHT22;7364;50.870;4.722;2022-10-31T12:32:11;27.40;97.60
14555;DHT22;7364;50.870;4.722;2022-10-31T12:34:52;27.60;97.40
14555;DHT22;7364;50.870;4.722;2022-10-31T12:37:33;28.00;96.50
14555;DHT22;7364;50.870;4.722;2022-10-31T12:40:27;28.20;95.80
14555;DHT22;7364;50.870;4.722;2022-10-31T12:43:06;27.70;96.50
14555;DHT22;7364;50.870;4.722;2022-10-31T12:45:49;27.90;96.10
14555;DHT22;7364;50.870;4.722;2022-10-31T12:51:23;28.10;95.40
14555;DHT22;7364;50.870;4.722;2022-10-31T12:54:07;28.00;95.40
14555;DHT22;7364;50.870;4.722;2022-10-31T12:56:44;27.60;95.50
14555;DHT22;7364;50.870;4.722;2022-10-31T12:59:20;27.00;95.80
14555;DHT22;7364;50.870;4.722;2022-10-31T13:01:53;26.40;96.20
14555;DHT22;7364;50.870;4.722;2022-10-31T13:04:39;26.00;97.20
14555;DHT22;7364;50.870;4.722;2022-10-31T13:07:13;25.60;97.50
14555;DHT22;7364;50.870;4.722;2022-10-31T13:09:49;25.60;97.60
14555;DHT22;7364;50.870;4.722;2022-10-31T13:12:20;25.30;97.80
14555;DHT22;7364;50.870;4.722;2022-10-31T13:14:51;25.10;98.00
14555;DHT22;7364;50.870;4.722;2022-10-31T13:17:33;25.20;97.70
14555;DHT22;7364;50.870;4.722;2022-10-31T13:20:17;24.80;98.60
14555;DHT22;7364;50.870;4.722;2022-10-31T13:22:48;24.90;98.40
14555;DHT22;7364;50.870;4.722;2022-10-31T13:25:19;24.90;98.30
14555;DHT22;7364;50.870;4.722;2022-10-31T13:27:51;24.60;98.80
14555;DHT22;7364;50.870;4.722;2022-10-31T13:30:21;24.50;98.90
14555;DHT22;7364;50.870;4.722;2022-10-31T13:32:51;24.10;99.60
14555;DHT22;7364;50.870;4.722;2022-10-31T13:35:26;24.10;99.90
14555;DHT22;7364;50.870;4.722;2022-10-31T13:38:09;23.60;99.90
14555;DHT22;7364;50.870;4.722;2022-10-31T13:40:45;23.50;99.90
14555;DHT22;7364;50.870;4.722;2022-10-31T13:43:25;23.30;99.90
14555;DHT22;7364;50.870;4.722;2022-10-31T13:45:55;23.30;99.90
14555;DHT22;7364;50.870;4.722;2022-10-31T13:48:37;23.50;99.90
14555;DHT22;7364;50.870;4.722;2022-10-31T13:51:09;23.30;99.90
14555;DHT22;7364;50.870;4.722;2022-10-31T13:53:44;23.20;99.90
14555;DHT22;7364;50.870;4.722;2022-10-31T13:56:18;23.10;99.90
14555;DHT22;7364;50.870;4.722;2022-10-31T13:59:13;22.90;99.90
14555;DHT22;7364;50.870;4.722;2022-10-31T14:01:51;22.80;99.90
14555;DHT22;7364;50.870;4.722;2022-10-31T14:04:20;22.60;99.90
14555;DHT22;7364;50.870;4.722;2022-10-31T14:06:56;22.50;99.90
14555;DHT22;7364;50.870;4.722;2022-10-31T14:09:31;22.30;99.90
14555;DHT22;7364;50.870;4.722;2022-10-31T14:12:03;22.20;99.90
14555;DHT22;7364;50.870;4.722;2022-10-31T14:14:41;22.30;99.90
14555;DHT22;7364;50.870;4.722;2022-10-31T14:17:19;22.40;99.90
14555;DHT22;7364;50.870;4.722;2022-10-31T14:23:11;22.10;99.90
14555;DHT22;7364;50.870;4.722;2022-10-31T14:25:38;22.20;99.90
14555;DHT22;7364;50.870;4.722;2022-10-31T14:28:19;22.00;99.90
14555;DHT22;7364;50.870;4.722;2022-10-31T14:30:52;22.10;99.90
14555;DHT22;7364;50.870;4.722;2022-10-31T14:33:20;22.00;99.90
14555;DHT22;7364;50.870;4.722;2022-10-31T14:35:56;21.70;99.90
14555;DHT22;7364;50.870;4.722;2022-10-31T14:38:35;21.60;99.90
14555;DHT22;7364;50.870;4.722;2022-10-31T14:41:41;21.50;99.90
14555;DHT22;7364;50.870;4.722;2022-10-31T14:47:13;21.70;99.90
14555;DHT22;7364;50.870;4.722;2022-10-31T14:50:04;21.70;99.90
14555;DHT22;7364;50.870;4.722;2022-10-31T14:52:38;21.60;99.90
14555;DHT22;7364;50.870;4.722;2022-10-31T14:55:11;21.70;99.90
14555;DHT22;7364;50.870;4.722;2022-10-31T14:57:52;21.70;99.90
14555;DHT22;7364;50.870;4.722;2022-10-31T15:00:21;21.70;99.90
14555;DHT22;7364;50.870;4.722;2022-10-31T15:02:57;21.60;99.90
14555;DHT22;7364;50.870;4.722;2022-10-31T15:05:28;21.40;99.90
14555;DHT22;7364;50.870;4.722;2022-10-31T15:07:57;21.30;99.90
14555;DHT22;7364;50.870;4.722;2022-10-31T15:10:28;21.20;99.90
14555;DHT22;7364;50.870;4.722;2022-10-31T15:13:08;21.30;99.90
14555;DHT22;7364;50.870;4.722;2022-10-31T15:15:36;21.30;99.90
14555;DHT22;7364;50.870;4.722;2022-10-31T15:18:05;21.20;99.90
14555;DHT22;7364;50.870;4.722;2022-10-31T15:20:38;21.20;99.90
14555;DHT22;7364;50.870;4.722;2022-10-31T15:23:11;21.10;99.90
14555;DHT22;7364;50.870;4.722;2022-10-31T15:25:42;21.10;99.90
14555;DHT22;7364;50.870;4.722;2022-10-31T15:28:14;20.90;99.90
14555;DHT22;7364;50.870;4.722;2022-10-31T15:30:50;20.90;99.90
14555;DHT22;7364;50.870;4.722;2022-10-31T15:33:22;20.80;99.90
14555;DHT22;7364;50.870;4.722;2022-10-31T15:35:58;20.80;99.90
14555;DHT22;7364;50.870;4.722;2022-10-31T15:38:26;20.60;99.90
14555;DHT22;7364;50.870;4.722;2022-10-31T15:40:59;20.70;99.90
14555;DHT22;7364;50.870;4.722;2022-10-31T15:43:29;20.70;99.90
14555;DHT22;7364;50.870;4.722;2022-10-31T15:45:59;20.60;99.90
14555;DHT22;7364;50.870;4.722;2022-10-31T15:48:27;20.60;99.90
14555;DHT22;7364;50.870;4.722;2022-10-31T15:50:57;20.60;99.90
14555;DHT22;7364;50.870;4.722;2022-10-31T15:53:27;20.50;99.90
14555;DHT22;7364;50.870;4.722;2022-10-31T15:55:59;20.50;99.90
14555;DHT22;7364;50.870;4.722;2022-10-31T15:58:30;20.40;99.90
14555;DHT22;7364;50.870;4.722;2022-10-31T16:01:00;20.30;99.90
14555;DHT22;7364;50.870;4.722;2022-10-31T16:03:29;20.20;99.90
14555;DHT22;7364;50.870;4.722;2022-10-31T16:05:58;20.10;99.90
14555;DHT22;7364;50.870;4.722;2022-10-31T16:08:32;20.00;99.90
14555;DHT22;7364;50.870;4.722;2022-10-31T16:11:17;20.00;99.90
14555;DHT22;7364;50.870;4.722;2022-10-31T16:13:54;19.90;99.90
14555;DHT22;7364;50.870;4.722;2022-10-31T16:16:24;19.80;99.90
14555;DHT22;7364;50.870;4.722;2022-10-31T16:18:53;19.70;99.90
14555;DHT22;7364;50.870;4.722;2022-10-31T16:21:27;19.80;99.90
14555;DHT22;7364;50.870;4.722;2022-10-31T16:23:58;19.80;99.90
14555;DHT22;7364;50.870;4.722;2022-10-31T16:26:28;19.60;99.90
14555;DHT22;7364;50.870;4.722;2022-10-31T16:28:56;19.60;99.90
14555;DHT22;7364;50.870;4.722;2022-10-31T16:31:29;19.50;99.90